| time (UTC) | temp F | wind direction | speed knots | gust knots | rain 1hr in | rain 24hr in | rain mn in | humidity % | barometer mb |
| 20260507210638 | 62 | 297 | 0.9 | 2.6 | 0.00 | 0.00 | 0.00 | 77 | 1016.8 |
| 20260507205425 | 63 | 290 | 1.7 | 2.6 | 0.00 | 0.00 | 0.00 | 78 | 1016.8 |
| 20260507204237 | 63 | 299 | 0.9 | 1.7 | 0.00 | 0.00 | 0.00 | 77 | 1016.7 |
| 20260507203038 | 63 | 315 | 0.0 | 0.0 | 0.00 | 0.00 | 0.00 | 78 | 1016.6 |
| 20260507201826 | 63 | 0.0 | 0.0 | 0.00 | 0.00 | 0.00 | 75 | 1016.5 | |
| 20260507200632 | 64 | 211 | 0.0 | 0.9 | 0.00 | 0.00 | 0.00 | 73 | 1016.3 |
| 20260507195439 | 64 | 0.0 | 0.0 | 0.00 | 0.00 | 0.00 | 71 | 1016.2 | |
| 20260507194246 | 64 | 338 | 0.0 | 0.0 | 0.00 | 0.00 | 0.00 | 71 | 1016.1 |
| 20260507193047 | 64 | 308 | 0.0 | 0.0 | 0.00 | 0.00 | 0.00 | 71 | 1016.0 |
| 20260507191844 | 64 | 0.0 | 0.0 | 0.00 | 0.00 | 0.00 | 69 | 1015.9 | |
| 20260507190631 | 65 | 0.0 | 0.0 | 0.00 | 0.00 | 0.00 | 68 | 1015.7 | |
| 20260507185439 | 65 | 0.0 | 0.0 | 0.00 | 0.00 | 0.00 | 67 | 1015.7 | |
| 20260507184245 | 65 | 0.0 | 0.0 | 0.00 | 0.00 | 0.00 | 63 | 1015.6 | |
| 20260507183042 | 66 | 293 | 0.9 | 0.9 | 0.00 | 0.00 | 0.00 | 65 | 1015.5 |
| 20260507181908 | 65 | 228 | 0.0 | 1.7 | 0.00 | 0.00 | 0.00 | 65 | 1015.4 |
| 20260507180654 | 65 | 271 | 0.9 | 1.7 | 0.00 | 0.00 | 0.00 | 65 | 1015.3 |
| 20260507175450 | 65 | 242 | 0.9 | 3.5 | 0.00 | 0.00 | 0.00 | 64 | 1015.1 |
| 20260507174232 | 65 | 34 | 0.9 | 1.7 | 0.00 | 0.00 | 0.00 | 61 | 1014.9 |
| 20260507173030 | 66 | 187 | 0.9 | 1.7 | 0.00 | 0.00 | 0.00 | 58 | 1014.8 |
| 20260507171836 | 67 | 296 | 2.6 | 5.2 | 0.00 | 0.00 | 0.00 | 54 | 1014.9 |
| 20260507170623 | 68 | 237 | 6.1 | 8.7 | 0.00 | 0.00 | 0.00 | 49 | 1014.7 |
| 20260507165430 | 70 | 233 | 4.3 | 5.2 | 0.00 | 0.00 | 0.00 | 46 | 1014.3 |
| 20260507164257 | 72 | 249 | 3.5 | 4.3 | 0.00 | 0.00 | 0.00 | 44 | 1014.0 |
| 20260507163033 | 73 | 218 | 1.7 | 3.5 | 0.00 | 0.00 | 0.00 | 42 | 1013.8 |
| 20260507161851 | 74 | 276 | 1.7 | 2.6 | 0.00 | 0.00 | 0.00 | 41 | 1013.8 |
| 20260507160638 | 74 | 254 | 2.6 | 5.2 | 0.00 | 0.00 | 0.00 | 40 | 1013.8 |
| 20260507155435 | 74 | 267 | 3.5 | 5.2 | 0.00 | 0.00 | 0.00 | 40 | 1013.6 |
| 20260507154232 | 75 | 280 | 3.5 | 6.1 | 0.00 | 0.00 | 0.00 | 39 | 1013.7 |
| 20260507153030 | 76 | 315 | 1.7 | 3.5 | 0.00 | 0.00 | 0.00 | 39 | 1013.8 |
| 20260507151857 | 76 | 277 | 3.5 | 7.8 | 0.00 | 0.00 | 0.00 | 39 | 1013.8 |
| 20260507150634 | 76 | 284 | 3.5 | 7.8 | 0.00 | 0.00 | 0.00 | 40 | 1013.7 |
| 20260507145431 | 75 | 313 | 2.6 | 3.5 | 0.00 | 0.00 | 0.00 | 42 | 1013.7 |
| 20260507144259 | 75 | 304 | 1.7 | 3.5 | 0.00 | 0.00 | 0.00 | 42 | 1013.7 |
| 20260507143025 | 75 | 220 | 0.9 | 3.5 | 0.00 | 0.00 | 0.00 | 41 | 1013.7 |
| 20260507141831 | 75 | 253 | 1.7 | 2.6 | 0.00 | 0.00 | 0.00 | 41 | 1013.8 |
| 20260507140628 | 75 | 307 | 1.7 | 2.6 | 0.00 | 0.00 | 0.00 | 40 | 1013.8 |
| 20260507135436 | 76 | 326 | 0.9 | 1.7 | 0.00 | 0.00 | 0.00 | 39 | 1013.8 |
| 20260507134242 | 77 | 287 | 1.7 | 4.3 | 0.00 | 0.00 | 0.00 | 40 | 1013.8 |
| 20260507133020 | 76 | 188 | 1.7 | 1.7 | 0.00 | 0.00 | 0.00 | 40 | 1013.9 |
| 20260507131827 | 76 | 237 | 0.9 | 1.7 | 0.00 | 0.00 | 0.00 | 42 | 1014.0 |
| 20260507130644 | 76 | 246 | 2.6 | 3.5 | 0.00 | 0.00 | 0.00 | 41 | 1014.1 |
| 20260507125441 | 75 | 262 | 2.6 | 4.3 | 0.00 | 0.00 | 0.00 | 41 | 1014.3 |
| 20260507124228 | 77 | 226 | 2.6 | 3.5 | 0.00 | 0.00 | 0.00 | 39 | 1014.3 |
| 20260507123115 | 78 | 277 | 3.5 | 7.8 | 0.00 | 0.00 | 0.00 | 40 | 1014.2 |
| 20260507121832 | 75 | 333 | 0.9 | 1.7 | 0.00 | 0.00 | 0.00 | 41 | 1014.4 |
| 20260507120649 | 75 | 274 | 3.5 | 6.1 | 0.00 | 0.00 | 0.00 | 40 | 1014.6 |
| 20260507115426 | 76 | 311 | 1.7 | 3.5 | 0.00 | 0.00 | 0.00 | 40 | 1014.6 |
| 20260507114240 | 76 | 305 | 1.7 | 3.5 | 0.00 | 0.00 | 0.00 | 39 | 1014.8 |
| 20260507113024 | 76 | 268 | 2.6 | 4.3 | 0.00 | 0.00 | 0.00 | 38 | 1014.9 |
| 20260507111825 | 76 | 298 | 1.7 | 3.5 | 0.00 | 0.00 | 0.00 | 40 | 1015.0 |
| 20260507110631 | 76 | 304 | 2.6 | 5.2 | 0.00 | 0.00 | 0.00 | 40 | 1015.1 |
| 20260507105439 | 76 | 308 | 1.7 | 2.6 | 0.00 | 0.00 | 0.00 | 43 | 1015.1 |
| 20260507104246 | 73 | 276 | 2.6 | 5.2 | 0.00 | 0.00 | 0.00 | 45 | 1015.2 |
| 20260507103023 | 71 | 263 | 2.6 | 4.3 | 0.00 | 0.00 | 0.00 | 45 | 1015.4 |
| 20260507101830 | 72 | 269 | 1.7 | 3.5 | 0.00 | 0.00 | 0.00 | 45 | 1015.4 |
| 20260507100626 | 72 | 244 | 3.5 | 6.1 | 0.00 | 0.00 | 0.00 | 44 | 1015.3 |
| 20260507095432 | 72 | 267 | 4.3 | 6.1 | 0.00 | 0.00 | 0.00 | 45 | 1015.3 |
| 20260507094229 | 72 | 325 | 2.6 | 2.6 | 0.00 | 0.00 | 0.00 | 46 | 1015.2 |
| 20260507093024 | 70 | 254 | 1.7 | 2.6 | 0.00 | 0.00 | 0.00 | 49 | 1015.2 |
| 20260507091831 | 69 | 300 | 2.6 | 6.1 | 0.00 | 0.00 | 0.00 | 49 | 1015.1 |
| 20260507090653 | 69 | 256 | 3.5 | 5.2 | 0.00 | 0.00 | 0.00 | 51 | 1015.1 |
| 20260507085439 | 67 | 274 | 4.3 | 7.8 | 0.00 | 0.00 | 0.00 | 53 | 1015.1 |
| 20260507084305 | 67 | 241 | 5.2 | 7.0 | 0.00 | 0.00 | 0.00 | 53 | 1015.0 |
| 20260507083042 | 67 | 218 | 4.3 | 7.8 | 0.00 | 0.00 | 0.00 | 54 | 1014.8 |
| 20260507081829 | 67 | 253 | 5.2 | 9.6 | 0.00 | 0.00 | 0.00 | 54 | 1014.5 |
| 20260507080633 | 67 | 274 | 4.3 | 7.0 | 0.00 | 0.00 | 0.00 | 54 | 1014.4 |
| 20260507075430 | 68 | 248 | 2.6 | 6.1 | 0.00 | 0.00 | 0.00 | 53 | 1014.3 |
| 20260507074237 | 68 | 237 | 4.3 | 7.8 | 0.00 | 0.00 | 0.00 | 54 | 1014.3 |
| 20260507073115 | 67 | 274 | 4.3 | 7.0 | 0.00 | 0.00 | 0.00 | 56 | 1014.3 |
| 20260507071827 | 64 | 256 | 4.3 | 7.8 | 0.00 | 0.00 | 0.00 | 63 | 1014.3 |
| 20260507070631 | 63 | 270 | 5.2 | 7.8 | 0.00 | 0.00 | 0.00 | 64 | 1014.3 |
| 20260507065438 | 63 | 249 | 5.2 | 9.6 | 0.00 | 0.00 | 0.00 | 65 | 1014.3 |
| 20260507064246 | 62 | 268 | 4.3 | 7.0 | 0.00 | 0.00 | 0.00 | 69 | 1014.3 |
| 20260507063032 | 62 | 264 | 3.5 | 6.1 | 0.00 | 0.00 | 0.00 | 68 | 1014.3 |
| 20260507061829 | 63 | 262 | 4.3 | 9.6 | 0.00 | 0.00 | 0.00 | 67 | 1014.1 |
| 20260507060637 | 62 | 279 | 7.0 | 9.6 | 0.00 | 0.00 | 0.00 | 68 | 1013.9 |
| 20260507055443 | 63 | 282 | 4.3 | 8.7 | 0.00 | 0.00 | 0.00 | 70 | 1013.6 |
| 20260507054240 | 62 | 257 | 4.3 | 5.2 | 0.00 | 0.00 | 0.00 | 72 | 1013.6 |
| 20260507053048 | 62 | 256 | 4.3 | 6.1 | 0.00 | 0.00 | 0.00 | 74 | 1013.5 |
| 20260507051835 | 62 | 250 | 2.6 | 3.5 | 0.00 | 0.00 | 0.00 | 75 | 1013.3 |
| 20260507050632 | 62 | 258 | 2.6 | 6.1 | 0.00 | 0.00 | 0.00 | 75 | 1013.3 |
| 20260507045438 | 61 | 274 | 3.5 | 5.2 | 0.00 | 0.00 | 0.00 | 76 | 1013.1 |
| 20260507044235 | 61 | 277 | 1.7 | 3.5 | 0.00 | 0.00 | 0.00 | 77 | 1013.0 |
| 20260507043051 | 61 | 299 | 1.7 | 2.6 | 0.00 | 0.00 | 0.00 | 77 | 1012.7 |
| 20260507041848 | 61 | 289 | 2.6 | 4.3 | 0.00 | 0.00 | 0.00 | 78 | 1012.6 |
| 20260507040625 | 61 | 281 | 2.6 | 5.2 | 0.00 | 0.00 | 0.00 | 77 | 1012.5 |
| 20260507035432 | 61 | 287 | 1.7 | 2.6 | 0.00 | 0.00 | 0.00 | 77 | 1012.4 |
| 20260507034229 | 61 | 288 | 2.6 | 4.3 | 0.00 | 0.00 | 0.00 | 77 | 1012.3 |
| 20260507033037 | 61 | 282 | 3.5 | 5.2 | 0.00 | 0.00 | 0.00 | 79 | 1012.1 |
| 20260507031854 | 61 | 278 | 3.5 | 5.2 | 0.00 | 0.00 | 0.00 | 78 | 1012.0 |
| 20260507030631 | 61 | 272 | 2.6 | 4.3 | 0.00 | 0.00 | 0.00 | 77 | 1011.9 |
| 20260507025448 | 61 | 280 | 2.6 | 6.1 | 0.00 | 0.00 | 0.00 | 78 | 1011.9 |
| 20260507024244 | 61 | 301 | 3.5 | 5.2 | 0.00 | 0.00 | 0.00 | 77 | 1011.8 |
| 20260507023032 | 61 | 264 | 3.5 | 5.2 | 0.00 | 0.00 | 0.00 | 76 | 1011.8 |
| 20260507021838 | 61 | 285 | 2.6 | 7.0 | 0.00 | 0.00 | 0.00 | 76 | 1011.5 |
| 20260507020635 | 61 | 280 | 4.3 | 7.0 | 0.00 | 0.00 | 0.00 | 76 | 1011.7 |
| 20260507015442 | 62 | 258 | 4.3 | 6.1 | 0.00 | 0.00 | 0.00 | 76 | 1011.5 |
| 20260507014229 | 62 | 258 | 4.3 | 5.2 | 0.00 | 0.00 | 0.00 | 76 | 1011.3 |
| 20260507013036 | 62 | 270 | 4.3 | 10.4 | 0.00 | 0.00 | 0.00 | 75 | 1011.3 |
| 20260507011823 | 62 | 249 | 4.3 | 10.4 | 0.00 | 0.00 | 0.00 | 74 | 1011.2 |
| 20260507010630 | 62 | 265 | 5.2 | 7.0 | 0.00 | 0.00 | 0.00 | 75 | 1011.0 |
| 20260507005437 | 62 | 271 | 5.2 | 7.8 | 0.00 | 0.00 | 0.00 | 73 | 1010.7 |
| 20260507004235 | 63 | 259 | 3.5 | 5.2 | 0.00 | 0.00 | 0.00 | 72 | 1010.5 |
| 20260507003032 | 63 | 253 | 2.6 | 3.5 | 0.00 | 0.00 | 0.00 | 73 | 1010.4 |
| 20260507001854 | 63 | 293 | 3.5 | 6.1 | 0.00 | 0.00 | 0.00 | 73 | 1010.3 |
| 20260507000645 | 63 | 272 | 3.5 | 5.2 | 0.00 | 0.00 | 0.00 | 74 | 1010.3 |
| 20260506235432 | 63 | 280 | 6.1 | 9.6 | 0.00 | 0.00 | 0.00 | 74 | 1010.3 |
| 20260506234249 | 63 | 278 | 4.3 | 7.0 | 0.00 | 0.00 | 0.00 | 72 | 1010.1 |
| 20260506233026 | 64 | 289 | 3.5 | 6.1 | 0.00 | 0.00 | 0.00 | 70 | 1009.8 |
| 20260506231844 | 64 | 274 | 3.5 | 5.2 | 0.00 | 0.00 | 0.00 | 67 | 1009.7 |
| 20260506230651 | 64 | 266 | 3.5 | 5.2 | 0.00 | 0.00 | 0.00 | 65 | 1009.4 |
| 20260506225438 | 65 | 268 | 2.6 | 5.2 | 0.00 | 0.00 | 0.00 | 64 | 1009.2 |
| 20260506224245 | 65 | 266 | 4.3 | 6.1 | 0.00 | 0.00 | 0.00 | 62 | 1009.1 |
| 20260506223052 | 65 | 260 | 3.5 | 4.3 | 0.00 | 0.00 | 0.00 | 60 | 1009.0 |
| 20260506221819 | 66 | 266 | 2.6 | 4.3 | 0.00 | 0.00 | 0.00 | 58 | 1008.7 |
| 20260506220627 | 66 | 287 | 0.9 | 1.7 | 0.00 | 0.00 | 0.00 | 59 | 1008.4 |
| 20260506215454 | 65 | 208 | 4.3 | 6.1 | 0.00 | 0.00 | 0.00 | 60 | 1008.2 |
| 20260506214341 | 65 | 248 | 3.5 | 8.7 | 0.00 | 0.00 | 0.00 | 61 | 1007.6 |
| 20260506213029 | 65 | 203 | 4.3 | 7.0 | 0.00 | 0.00 | 0.00 | 60 | 1007.3 |
| 20260506211847 | 66 | 190 | 4.3 | 6.1 | 0.00 | 0.00 | 0.00 | 59 | 1007.2 |